sensor_id;sensor_type;location;lat;lon;timestamp;P1;durP1;ratioP1;P2;durP2;ratioP2
7529;SDS011;3806;52.270;10.544;2023-05-14T00:00:08;3.08;;;2.20;;
7529;SDS011;3806;52.270;10.544;2023-05-14T00:02:34;3.42;;;2.30;;
7529;SDS011;3806;52.270;10.544;2023-05-14T00:04:59;3.97;;;2.20;;
7529;SDS011;3806;52.270;10.544;2023-05-14T00:07:25;2.47;;;2.13;;
7529;SDS011;3806;52.270;10.544;2023-05-14T00:09:54;3.50;;;2.20;;
7529;SDS011;3806;52.270;10.544;2023-05-14T00:12:20;3.40;;;2.45;;
7529;SDS011;3806;52.270;10.544;2023-05-14T00:14:46;4.30;;;2.65;;
7529;SDS011;3806;52.270;10.544;2023-05-14T00:17:11;4.07;;;2.83;;
7529;SDS011;3806;52.270;10.544;2023-05-14T00:19:37;3.72;;;2.10;;
7529;SDS011;3806;52.270;10.544;2023-05-14T00:22:05;3.90;;;2.47;;
7529;SDS011;3806;52.270;10.544;2023-05-14T00:24:34;3.08;;;2.30;;
7529;SDS011;3806;52.270;10.544;2023-05-14T00:27:00;4.32;;;2.55;;
7529;SDS011;3806;52.270;10.544;2023-05-14T00:29:26;3.78;;;2.75;;
7529;SDS011;3806;52.270;10.544;2023-05-14T00:31:51;5.75;;;2.72;;
7529;SDS011;3806;52.270;10.544;2023-05-14T00:34:17;3.13;;;2.50;;
7529;SDS011;3806;52.270;10.544;2023-05-14T00:36:42;2.53;;;2.30;;
7529;SDS011;3806;52.270;10.544;2023-05-14T00:39:08;3.63;;;2.40;;
7529;SDS011;3806;52.270;10.544;2023-05-14T00:41:33;4.35;;;2.67;;
7529;SDS011;3806;52.270;10.544;2023-05-14T00:43:59;3.13;;;2.60;;
7529;SDS011;3806;52.270;10.544;2023-05-14T00:46:24;3.22;;;2.35;;
7529;SDS011;3806;52.270;10.544;2023-05-14T00:48:50;3.33;;;2.55;;
7529;SDS011;3806;52.270;10.544;2023-05-14T00:51:15;3.03;;;2.47;;
7529;SDS011;3806;52.270;10.544;2023-05-14T00:53:43;3.22;;;2.53;;
7529;SDS011;3806;52.270;10.544;2023-05-14T00:56:09;5.30;;;3.05;;
7529;SDS011;3806;52.270;10.544;2023-05-14T00:58:35;4.20;;;2.72;;
7529;SDS011;3806;52.270;10.544;2023-05-14T01:01:01;6.75;;;2.65;;
7529;SDS011;3806;52.270;10.544;2023-05-14T01:03:27;4.38;;;3.47;;
7529;SDS011;3806;52.270;10.544;2023-05-14T01:06:00;4.50;;;2.72;;
7529;SDS011;3806;52.270;10.544;2023-05-14T01:08:43;4.72;;;2.63;;
7529;SDS011;3806;52.270;10.544;2023-05-14T01:11:18;4.00;;;2.83;;
7529;SDS011;3806;52.270;10.544;2023-05-14T01:13:59;4.10;;;3.00;;
7529;SDS011;3806;52.270;10.544;2023-05-14T01:16:35;3.72;;;2.60;;
7529;SDS011;3806;52.270;10.544;2023-05-14T01:19:04;4.28;;;2.90;;
7529;SDS011;3806;52.270;10.544;2023-05-14T01:21:37;3.33;;;2.45;;
7529;SDS011;3806;52.270;10.544;2023-05-14T01:24:06;4.10;;;3.00;;
7529;SDS011;3806;52.270;10.544;2023-05-14T01:26:32;3.97;;;3.10;;
7529;SDS011;3806;52.270;10.544;2023-05-14T01:29:00;6.28;;;3.17;;
7529;SDS011;3806;52.270;10.544;2023-05-14T01:31:46;3.83;;;2.67;;
7529;SDS011;3806;52.270;10.544;2023-05-14T01:34:13;3.25;;;2.40;;
7529;SDS011;3806;52.270;10.544;2023-05-14T01:36:39;3.58;;;2.72;;
7529;SDS011;3806;52.270;10.544;2023-05-14T01:39:06;4.78;;;3.00;;
7529;SDS011;3806;52.270;10.544;2023-05-14T01:41:33;4.68;;;2.88;;
7529;SDS011;3806;52.270;10.544;2023-05-14T01:44:01;6.68;;;3.03;;
7529;SDS011;3806;52.270;10.544;2023-05-14T01:46:30;6.40;;;2.92;;
7529;SDS011;3806;52.270;10.544;2023-05-14T01:48:56;3.92;;;2.78;;
7529;SDS011;3806;52.270;10.544;2023-05-14T01:51:22;4.15;;;2.90;;
7529;SDS011;3806;52.270;10.544;2023-05-14T01:53:47;4.90;;;3.00;;
7529;SDS011;3806;52.270;10.544;2023-05-14T01:56:12;4.47;;;2.47;;
7529;SDS011;3806;52.270;10.544;2023-05-14T01:58:38;3.53;;;3.00;;
7529;SDS011;3806;52.270;10.544;2023-05-14T02:01:03;6.05;;;3.08;;
7529;SDS011;3806;52.270;10.544;2023-05-14T02:03:29;4.70;;;3.42;;
7529;SDS011;3806;52.270;10.544;2023-05-14T02:05:55;4.25;;;3.30;;
7529;SDS011;3806;52.270;10.544;2023-05-14T02:08:20;3.92;;;3.03;;
7529;SDS011;3806;52.270;10.544;2023-05-14T02:10:46;3.97;;;2.72;;
7529;SDS011;3806;52.270;10.544;2023-05-14T02:13:11;3.67;;;2.80;;
7529;SDS011;3806;52.270;10.544;2023-05-14T02:15:37;5.28;;;3.28;;
7529;SDS011;3806;52.270;10.544;2023-05-14T02:18:02;5.90;;;3.25;;
7529;SDS011;3806;52.270;10.544;2023-05-14T02:20:28;5.13;;;2.97;;
7529;SDS011;3806;52.270;10.544;2023-05-14T02:22:53;5.75;;;3.00;;
7529;SDS011;3806;52.270;10.544;2023-05-14T02:25:19;4.75;;;2.80;;
7529;SDS011;3806;52.270;10.544;2023-05-14T02:27:44;5.68;;;3.50;;
7529;SDS011;3806;52.270;10.544;2023-05-14T02:30:10;4.53;;;3.22;;
7529;SDS011;3806;52.270;10.544;2023-05-14T02:32:35;5.22;;;3.22;;
7529;SDS011;3806;52.270;10.544;2023-05-14T02:35:01;3.85;;;3.40;;
7529;SDS011;3806;52.270;10.544;2023-05-14T02:37:27;4.43;;;3.40;;
7529;SDS011;3806;52.270;10.544;2023-05-14T02:39:52;4.05;;;3.33;;
7529;SDS011;3806;52.270;10.544;2023-05-14T02:42:18;4.25;;;3.15;;
7529;SDS011;3806;52.270;10.544;2023-05-14T02:44:43;3.53;;;2.80;;
7529;SDS011;3806;52.270;10.544;2023-05-14T02:47:09;3.85;;;3.10;;
7529;SDS011;3806;52.270;10.544;2023-05-14T02:49:34;7.95;;;3.30;;
7529;SDS011;3806;52.270;10.544;2023-05-14T02:52:00;5.40;;;3.30;;
7529;SDS011;3806;52.270;10.544;2023-05-14T02:54:25;4.97;;;3.25;;
7529;SDS011;3806;52.270;10.544;2023-05-14T02:56:51;5.57;;;3.30;;
7529;SDS011;3806;52.270;10.544;2023-05-14T02:59:16;3.85;;;3.20;;
7529;SDS011;3806;52.270;10.544;2023-05-14T03:01:42;8.05;;;3.28;;
7529;SDS011;3806;52.270;10.544;2023-05-14T03:04:07;4.55;;;3.40;;
7529;SDS011;3806;52.270;10.544;2023-05-14T03:06:33;3.40;;;3.00;;
7529;SDS011;3806;52.270;10.544;2023-05-14T03:08:58;3.97;;;3.40;;
7529;SDS011;3806;52.270;10.544;2023-05-14T03:11:24;5.47;;;3.22;;
7529;SDS011;3806;52.270;10.544;2023-05-14T03:13:49;4.82;;;3.13;;
7529;SDS011;3806;52.270;10.544;2023-05-14T03:16:15;6.47;;;3.70;;
7529;SDS011;3806;52.270;10.544;2023-05-14T03:18:40;4.75;;;3.10;;
7529;SDS011;3806;52.270;10.544;2023-05-14T03:21:06;4.47;;;3.22;;
7529;SDS011;3806;52.270;10.544;2023-05-14T03:23:33;4.55;;;3.20;;
7529;SDS011;3806;52.270;10.544;2023-05-14T03:25:59;3.90;;;3.60;;
7529;SDS011;3806;52.270;10.544;2023-05-14T03:28:25;7.65;;;3.78;;
7529;SDS011;3806;52.270;10.544;2023-05-14T03:30:50;5.05;;;3.28;;
7529;SDS011;3806;52.270;10.544;2023-05-14T03:33:16;4.40;;;3.45;;
7529;SDS011;3806;52.270;10.544;2023-05-14T03:35:41;6.35;;;4.10;;
7529;SDS011;3806;52.270;10.544;2023-05-14T03:38:07;4.93;;;3.65;;
7529;SDS011;3806;52.270;10.544;2023-05-14T03:40:32;5.63;;;3.65;;
7529;SDS011;3806;52.270;10.544;2023-05-14T03:42:58;6.10;;;3.60;;
7529;SDS011;3806;52.270;10.544;2023-05-14T03:45:23;4.40;;;3.63;;
7529;SDS011;3806;52.270;10.544;2023-05-14T03:47:50;4.35;;;3.50;;
7529;SDS011;3806;52.270;10.544;2023-05-14T03:50:16;5.78;;;3.97;;
7529;SDS011;3806;52.270;10.544;2023-05-14T03:52:41;4.93;;;3.55;;
7529;SDS011;3806;52.270;10.544;2023-05-14T03:55:08;6.35;;;3.72;;
7529;SDS011;3806;52.270;10.544;2023-05-14T03:57:34;4.65;;;3.28;;
7529;SDS011;3806;52.270;10.544;2023-05-14T04:00:00;4.57;;;3.45;;
7529;SDS011;3806;52.270;10.544;2023-05-14T04:02:26;4.63;;;3.63;;
7529;SDS011;3806;52.270;10.544;2023-05-14T04:04:51;5.53;;;3.40;;
7529;SDS011;3806;52.270;10.544;2023-05-14T04:07:17;7.10;;;3.78;;
7529;SDS011;3806;52.270;10.544;2023-05-14T04:09:42;5.50;;;4.00;;
7529;SDS011;3806;52.270;10.544;2023-05-14T04:12:08;5.95;;;3.78;;
7529;SDS011;3806;52.270;10.544;2023-05-14T04:14:34;5.45;;;3.55;;
7529;SDS011;3806;52.270;10.544;2023-05-14T04:16:59;4.15;;;3.17;;
7529;SDS011;3806;52.270;10.544;2023-05-14T04:19:24;5.47;;;4.28;;
7529;SDS011;3806;52.270;10.544;2023-05-14T04:21:50;4.88;;;4.00;;
7529;SDS011;3806;52.270;10.544;2023-05-14T04:24:15;4.70;;;3.70;;
7529;SDS011;3806;52.270;10.544;2023-05-14T04:26:41;6.75;;;3.92;;
7529;SDS011;3806;52.270;10.544;2023-05-14T04:29:07;4.30;;;3.42;;
7529;SDS011;3806;52.270;10.544;2023-05-14T04:31:32;4.95;;;3.45;;
7529;SDS011;3806;52.270;10.544;2023-05-14T04:33:57;5.05;;;4.35;;
7529;SDS011;3806;52.270;10.544;2023-05-14T04:36:23;5.65;;;3.92;;
7529;SDS011;3806;52.270;10.544;2023-05-14T04:38:48;4.93;;;4.00;;
7529;SDS011;3806;52.270;10.544;2023-05-14T04:41:14;4.60;;;3.70;;
7529;SDS011;3806;52.270;10.544;2023-05-14T04:43:40;6.00;;;4.00;;
7529;SDS011;3806;52.270;10.544;2023-05-14T04:46:05;3.53;;;3.13;;
7529;SDS011;3806;52.270;10.544;2023-05-14T04:48:31;6.05;;;3.30;;
7529;SDS011;3806;52.270;10.544;2023-05-14T04:50:56;4.53;;;2.97;;
7529;SDS011;3806;52.270;10.544;2023-05-14T04:53:22;3.42;;;2.97;;
7529;SDS011;3806;52.270;10.544;2023-05-14T04:55:48;3.70;;;2.95;;
7529;SDS011;3806;52.270;10.544;2023-05-14T04:58:13;7.40;;;2.78;;
7529;SDS011;3806;52.270;10.544;2023-05-14T05:00:39;3.72;;;3.05;;
7529;SDS011;3806;52.270;10.544;2023-05-14T05:03:04;4.00;;;3.13;;
7529;SDS011;3806;52.270;10.544;2023-05-14T05:05:30;5.05;;;3.10;;
7529;SDS011;3806;52.270;10.544;2023-05-14T05:07:55;4.05;;;3.47;;
7529;SDS011;3806;52.270;10.544;2023-05-14T05:10:21;3.63;;;2.92;;
7529;SDS011;3806;52.270;10.544;2023-05-14T05:12:46;3.63;;;2.78;;
7529;SDS011;3806;52.270;10.544;2023-05-14T05:15:12;3.55;;;2.70;;
7529;SDS011;3806;52.270;10.544;2023-05-14T05:17:37;3.20;;;2.60;;
7529;SDS011;3806;52.270;10.544;2023-05-14T05:20:03;2.92;;;2.55;;
7529;SDS011;3806;52.270;10.544;2023-05-14T05:22:31;3.15;;;2.45;;
7529;SDS011;3806;52.270;10.544;2023-05-14T05:24:57;4.70;;;3.60;;
7529;SDS011;3806;52.270;10.544;2023-05-14T05:27:23;2.97;;;2.28;;
7529;SDS011;3806;52.270;10.544;2023-05-14T05:29:50;3.38;;;2.45;;
7529;SDS011;3806;52.270;10.544;2023-05-14T05:32:15;4.10;;;3.10;;
7529;SDS011;3806;52.270;10.544;2023-05-14T05:34:40;4.13;;;3.03;;
7529;SDS011;3806;52.270;10.544;2023-05-14T05:37:06;4.55;;;3.63;;
7529;SDS011;3806;52.270;10.544;2023-05-14T05:39:33;3.15;;;2.80;;
7529;SDS011;3806;52.270;10.544;2023-05-14T05:41:59;4.22;;;2.50;;
7529;SDS011;3806;52.270;10.544;2023-05-14T05:44:25;3.00;;;2.63;;
7529;SDS011;3806;52.270;10.544;2023-05-14T05:46:51;2.70;;;2.45;;
7529;SDS011;3806;52.270;10.544;2023-05-14T05:49:17;3.35;;;2.50;;
7529;SDS011;3806;52.270;10.544;2023-05-14T05:51:42;3.38;;;2.60;;
7529;SDS011;3806;52.270;10.544;2023-05-14T05:54:07;4.78;;;2.78;;
7529;SDS011;3806;52.270;10.544;2023-05-14T05:56:33;3.30;;;2.83;;
7529;SDS011;3806;52.270;10.544;2023-05-14T05:58:58;5.22;;;3.10;;
7529;SDS011;3806;52.270;10.544;2023-05-14T06:01:24;3.42;;;2.95;;
7529;SDS011;3806;52.270;10.544;2023-05-14T06:03:50;4.28;;;3.03;;
7529;SDS011;3806;52.270;10.544;2023-05-14T06:06:16;5.80;;;2.97;;
7529;SDS011;3806;52.270;10.544;2023-05-14T06:08:42;4.57;;;3.50;;
7529;SDS011;3806;52.270;10.544;2023-05-14T06:11:07;6.35;;;3.80;;
7529;SDS011;3806;52.270;10.544;2023-05-14T06:13:33;3.97;;;3.42;;
7529;SDS011;3806;52.270;10.544;2023-05-14T06:15:58;4.35;;;3.15;;
7529;SDS011;3806;52.270;10.544;2023-05-14T06:18:24;4.55;;;3.20;;
7529;SDS011;3806;52.270;10.544;2023-05-14T06:20:49;4.45;;;3.30;;
7529;SDS011;3806;52.270;10.544;2023-05-14T06:23:15;4.05;;;2.83;;
7529;SDS011;3806;52.270;10.544;2023-05-14T06:25:40;5.47;;;3.38;;
7529;SDS011;3806;52.270;10.544;2023-05-14T06:28:06;3.90;;;3.33;;
7529;SDS011;3806;52.270;10.544;2023-05-14T06:30:31;5.93;;;3.17;;
7529;SDS011;3806;52.270;10.544;2023-05-14T06:32:56;4.22;;;3.35;;
7529;SDS011;3806;52.270;10.544;2023-05-14T06:35:22;6.55;;;3.58;;
7529;SDS011;3806;52.270;10.544;2023-05-14T06:37:48;6.63;;;3.50;;
7529;SDS011;3806;52.270;10.544;2023-05-14T06:40:13;4.20;;;3.53;;
7529;SDS011;3806;52.270;10.544;2023-05-14T06:42:39;4.32;;;3.63;;
7529;SDS011;3806;52.270;10.544;2023-05-14T06:45:05;4.75;;;3.83;;
7529;SDS011;3806;52.270;10.544;2023-05-14T06:47:31;4.90;;;3.85;;
7529;SDS011;3806;52.270;10.544;2023-05-14T06:49:57;5.22;;;3.92;;
7529;SDS011;3806;52.270;10.544;2023-05-14T06:52:23;5.53;;;3.47;;
7529;SDS011;3806;52.270;10.544;2023-05-14T06:54:49;3.20;;;2.67;;
7529;SDS011;3806;52.270;10.544;2023-05-14T06:57:15;6.13;;;3.30;;
7529;SDS011;3806;52.270;10.544;2023-05-14T06:59:40;6.22;;;4.05;;
7529;SDS011;3806;52.270;10.544;2023-05-14T07:02:06;6.95;;;4.25;;
7529;SDS011;3806;52.270;10.544;2023-05-14T07:04:31;4.85;;;3.60;;
7529;SDS011;3806;52.270;10.544;2023-05-14T07:06:57;5.53;;;3.50;;
7529;SDS011;3806;52.270;10.544;2023-05-14T07:09:22;4.45;;;3.35;;
7529;SDS011;3806;52.270;10.544;2023-05-14T07:11:48;5.65;;;3.25;;
7529;SDS011;3806;52.270;10.544;2023-05-14T07:14:13;4.18;;;3.45;;
7529;SDS011;3806;52.270;10.544;2023-05-14T07:16:39;7.38;;;3.22;;
7529;SDS011;3806;52.270;10.544;2023-05-14T07:19:06;5.00;;;3.47;;
7529;SDS011;3806;52.270;10.544;2023-05-14T07:21:31;4.13;;;3.17;;
7529;SDS011;3806;52.270;10.544;2023-05-14T07:23:57;6.25;;;3.38;;
7529;SDS011;3806;52.270;10.544;2023-05-14T07:26:22;4.80;;;3.58;;
7529;SDS011;3806;52.270;10.544;2023-05-14T07:28:48;4.70;;;3.22;;
7529;SDS011;3806;52.270;10.544;2023-05-14T07:31:14;6.88;;;3.60;;
7529;SDS011;3806;52.270;10.544;2023-05-14T07:33:39;4.85;;;3.65;;
7529;SDS011;3806;52.270;10.544;2023-05-14T07:36:05;4.38;;;3.45;;
7529;SDS011;3806;52.270;10.544;2023-05-14T07:38:31;6.70;;;3.40;;
7529;SDS011;3806;52.270;10.544;2023-05-14T07:40:56;8.48;;;3.75;;
7529;SDS011;3806;52.270;10.544;2023-05-14T07:43:22;5.80;;;3.72;;
7529;SDS011;3806;52.270;10.544;2023-05-14T07:45:47;4.53;;;3.65;;
7529;SDS011;3806;52.270;10.544;2023-05-14T07:48:13;5.63;;;3.88;;
7529;SDS011;3806;52.270;10.544;2023-05-14T07:50:38;7.50;;;3.50;;
7529;SDS011;3806;52.270;10.544;2023-05-14T07:53:04;4.90;;;3.00;;
7529;SDS011;3806;52.270;10.544;2023-05-14T07:55:30;5.07;;;3.25;;
7529;SDS011;3806;52.270;10.544;2023-05-14T07:57:55;4.15;;;3.33;;
7529;SDS011;3806;52.270;10.544;2023-05-14T08:00:21;5.43;;;3.70;;
7529;SDS011;3806;52.270;10.544;2023-05-14T08:02:46;4.82;;;3.38;;
7529;SDS011;3806;52.270;10.544;2023-05-14T08:05:13;5.45;;;2.80;;
7529;SDS011;3806;52.270;10.544;2023-05-14T08:07:38;3.90;;;3.10;;
7529;SDS011;3806;52.270;10.544;2023-05-14T08:10:04;4.43;;;3.10;;
7529;SDS011;3806;52.270;10.544;2023-05-14T08:12:31;3.88;;;2.78;;
7529;SDS011;3806;52.270;10.544;2023-05-14T08:14:57;5.03;;;3.30;;
7529;SDS011;3806;52.270;10.544;2023-05-14T08:17:22;4.05;;;2.80;;
7529;SDS011;3806;52.270;10.544;2023-05-14T08:19:48;4.20;;;3.20;;
7529;SDS011;3806;52.270;10.544;2023-05-14T08:22:13;4.68;;;3.00;;
7529;SDS011;3806;52.270;10.544;2023-05-14T08:24:39;4.63;;;3.30;;
7529;SDS011;3806;52.270;10.544;2023-05-14T08:27:06;3.70;;;3.20;;
7529;SDS011;3806;52.270;10.544;2023-05-14T08:29:32;5.70;;;3.22;;
7529;SDS011;3806;52.270;10.544;2023-05-14T08:31:57;3.78;;;2.92;;
7529;SDS011;3806;52.270;10.544;2023-05-14T08:34:23;6.50;;;3.10;;
7529;SDS011;3806;52.270;10.544;2023-05-14T08:36:49;4.47;;;2.95;;
7529;SDS011;3806;52.270;10.544;2023-05-14T08:39:14;4.97;;;2.78;;
7529;SDS011;3806;52.270;10.544;2023-05-14T08:41:40;4.25;;;2.65;;
7529;SDS011;3806;52.270;10.544;2023-05-14T08:44:06;3.97;;;2.70;;
7529;SDS011;3806;52.270;10.544;2023-05-14T08:46:42;4.35;;;2.50;;
7529;SDS011;3806;52.270;10.544;2023-05-14T08:49:16;5.18;;;2.83;;
7529;SDS011;3806;52.270;10.544;2023-05-14T08:52:00;3.33;;;2.85;;
7529;SDS011;3806;52.270;10.544;2023-05-14T08:54:25;4.60;;;2.72;;
7529;SDS011;3806;52.270;10.544;2023-05-14T08:56:52;3.95;;;2.65;;
7529;SDS011;3806;52.270;10.544;2023-05-14T08:59:18;3.53;;;2.63;;
7529;SDS011;3806;52.270;10.544;2023-05-14T09:01:47;3.97;;;2.47;;
7529;SDS011;3806;52.270;10.544;2023-05-14T09:04:18;4.93;;;3.60;;
7529;SDS011;3806;52.270;10.544;2023-05-14T09:06:47;2.67;;;2.10;;
7529;SDS011;3806;52.270;10.544;2023-05-14T09:09:14;3.42;;;2.17;;
7529;SDS011;3806;52.270;10.544;2023-05-14T09:11:41;3.92;;;2.42;;
7529;SDS011;3806;52.270;10.544;2023-05-14T09:14:08;5.85;;;2.20;;
7529;SDS011;3806;52.270;10.544;2023-05-14T09:16:34;4.38;;;2.53;;
7529;SDS011;3806;52.270;10.544;2023-05-14T09:19:01;2.28;;;1.92;;
7529;SDS011;3806;52.270;10.544;2023-05-14T09:21:27;3.40;;;2.13;;
7529;SDS011;3806;52.270;10.544;2023-05-14T09:23:53;4.35;;;2.15;;
7529;SDS011;3806;52.270;10.544;2023-05-14T09:26:24;3.60;;;2.45;;
7529;SDS011;3806;52.270;10.544;2023-05-14T09:28:55;2.88;;;2.53;;
7529;SDS011;3806;52.270;10.544;2023-05-14T09:31:22;3.33;;;2.10;;
7529;SDS011;3806;52.270;10.544;2023-05-14T09:33:50;4.45;;;2.55;;
7529;SDS011;3806;52.270;10.544;2023-05-14T09:36:16;3.05;;;2.17;;
7529;SDS011;3806;52.270;10.544;2023-05-14T09:38:43;4.22;;;2.13;;
7529;SDS011;3806;52.270;10.544;2023-05-14T09:41:10;5.13;;;2.53;;
7529;SDS011;3806;52.270;10.544;2023-05-14T09:43:35;3.47;;;2.40;;
7529;SDS011;3806;52.270;10.544;2023-05-14T09:46:01;3.88;;;2.50;;
7529;SDS011;3806;52.270;10.544;2023-05-14T09:48:26;3.63;;;2.35;;
7529;SDS011;3806;52.270;10.544;2023-05-14T09:50:52;6.65;;;2.33;;
7529;SDS011;3806;52.270;10.544;2023-05-14T09:53:18;5.10;;;2.78;;
7529;SDS011;3806;52.270;10.544;2023-05-14T09:55:44;3.40;;;2.70;;
7529;SDS011;3806;52.270;10.544;2023-05-14T09:58:10;3.78;;;2.40;;
7529;SDS011;3806;52.270;10.544;2023-05-14T10:00:37;3.33;;;2.58;;
7529;SDS011;3806;52.270;10.544;2023-05-14T10:03:06;3.85;;;2.70;;
7529;SDS011;3806;52.270;10.544;2023-05-14T10:05:35;4.90;;;2.80;;
7529;SDS011;3806;52.270;10.544;2023-05-14T10:08:16;6.00;;;2.95;;
7529;SDS011;3806;52.270;10.544;2023-05-14T10:10:46;5.80;;;3.60;;
7529;SDS011;3806;52.270;10.544;2023-05-14T10:13:15;5.28;;;3.00;;
7529;SDS011;3806;52.270;10.544;2023-05-14T10:18:53;5.47;;;2.70;;
7529;SDS011;3806;52.270;10.544;2023-05-14T10:21:22;3.88;;;2.40;;
7529;SDS011;3806;52.270;10.544;2023-05-14T10:23:50;6.65;;;2.88;;
7529;SDS011;3806;52.270;10.544;2023-05-14T10:26:16;4.25;;;2.58;;
7529;SDS011;3806;52.270;10.544;2023-05-14T10:28:42;3.47;;;2.50;;
7529;SDS011;3806;52.270;10.544;2023-05-14T10:31:08;3.35;;;2.53;;
7529;SDS011;3806;52.270;10.544;2023-05-14T10:33:55;4.97;;;2.50;;
7529;SDS011;3806;52.270;10.544;2023-05-14T10:36:20;5.22;;;2.75;;
7529;SDS011;3806;52.270;10.544;2023-05-14T10:38:46;6.53;;;2.97;;
7529;SDS011;3806;52.270;10.544;2023-05-14T10:41:20;5.82;;;3.00;;
7529;SDS011;3806;52.270;10.544;2023-05-14T10:43:45;5.00;;;2.80;;
7529;SDS011;3806;52.270;10.544;2023-05-14T10:46:11;4.43;;;2.92;;
7529;SDS011;3806;52.270;10.544;2023-05-14T10:48:39;4.03;;;2.25;;
7529;SDS011;3806;52.270;10.544;2023-05-14T10:51:06;4.38;;;2.30;;
7529;SDS011;3806;52.270;10.544;2023-05-14T10:53:38;4.93;;;2.63;;
7529;SDS011;3806;52.270;10.544;2023-05-14T10:56:09;3.20;;;2.42;;
7529;SDS011;3806;52.270;10.544;2023-05-14T10:58:40;3.63;;;1.77;;
7529;SDS011;3806;52.270;10.544;2023-05-14T11:01:07;2.70;;;2.00;;
7529;SDS011;3806;52.270;10.544;2023-05-14T11:03:39;4.05;;;2.03;;
7529;SDS011;3806;52.270;10.544;2023-05-14T11:06:06;3.25;;;2.20;;
7529;SDS011;3806;52.270;10.544;2023-05-14T11:08:32;3.63;;;2.17;;
7529;SDS011;3806;52.270;10.544;2023-05-14T11:10:58;3.20;;;2.40;;
7529;SDS011;3806;52.270;10.544;2023-05-14T11:13:27;3.47;;;1.92;;
7529;SDS011;3806;52.270;10.544;2023-05-14T11:15:53;5.63;;;2.35;;
7529;SDS011;3806;52.270;10.544;2023-05-14T11:18:26;4.10;;;2.58;;
7529;SDS011;3806;52.270;10.544;2023-05-14T11:21:02;3.10;;;2.63;;
7529;SDS011;3806;52.270;10.544;2023-05-14T11:23:28;3.45;;;2.53;;
7529;SDS011;3806;52.270;10.544;2023-05-14T11:25:54;3.95;;;2.58;;
7529;SDS011;3806;52.270;10.544;2023-05-14T11:28:21;4.80;;;2.25;;
7529;SDS011;3806;52.270;10.544;2023-05-14T11:30:50;3.90;;;2.53;;
7529;SDS011;3806;52.270;10.544;2023-05-14T11:33:17;4.68;;;2.42;;
7529;SDS011;3806;52.270;10.544;2023-05-14T11:35:43;4.40;;;2.47;;
7529;SDS011;3806;52.270;10.544;2023-05-14T11:38:16;3.05;;;2.30;;
7529;SDS011;3806;52.270;10.544;2023-05-14T11:40:49;6.95;;;2.40;;
7529;SDS011;3806;52.270;10.544;2023-05-14T11:43:18;3.38;;;2.33;;
7529;SDS011;3806;52.270;10.544;2023-05-14T11:45:48;2.85;;;2.33;;
7529;SDS011;3806;52.270;10.544;2023-05-14T11:48:15;4.78;;;2.45;;
7529;SDS011;3806;52.270;10.544;2023-05-14T11:50:43;3.10;;;2.40;;
7529;SDS011;3806;52.270;10.544;2023-05-14T11:53:16;3.10;;;2.38;;
7529;SDS011;3806;52.270;10.544;2023-05-14T11:55:49;6.00;;;2.78;;
7529;SDS011;3806;52.270;10.544;2023-05-14T11:58:15;5.72;;;3.20;;
7529;SDS011;3806;52.270;10.544;2023-05-14T12:00:43;5.68;;;2.67;;
7529;SDS011;3806;52.270;10.544;2023-05-14T12:03:09;4.63;;;2.95;;
7529;SDS011;3806;52.270;10.544;2023-05-14T12:05:36;3.58;;;2.92;;
7529;SDS011;3806;52.270;10.544;2023-05-14T12:08:03;4.95;;;2.80;;
7529;SDS011;3806;52.270;10.544;2023-05-14T12:10:44;3.22;;;2.75;;
7529;SDS011;3806;52.270;10.544;2023-05-14T12:13:09;6.60;;;3.00;;
7529;SDS011;3806;52.270;10.544;2023-05-14T12:15:38;3.42;;;2.72;;
7529;SDS011;3806;52.270;10.544;2023-05-14T12:18:07;4.15;;;3.13;;
7529;SDS011;3806;52.270;10.544;2023-05-14T12:20:33;4.85;;;3.58;;
7529;SDS011;3806;52.270;10.544;2023-05-14T12:22:58;5.00;;;3.03;;
7529;SDS011;3806;52.270;10.544;2023-05-14T12:25:24;6.20;;;3.00;;
7529;SDS011;3806;52.270;10.544;2023-05-14T12:27:50;4.32;;;3.28;;
7529;SDS011;3806;52.270;10.544;2023-05-14T12:30:15;3.15;;;2.70;;
7529;SDS011;3806;52.270;10.544;2023-05-14T12:32:40;5.38;;;3.33;;
7529;SDS011;3806;52.270;10.544;2023-05-14T12:35:06;5.78;;;3.13;;
7529;SDS011;3806;52.270;10.544;2023-05-14T12:37:32;4.78;;;3.20;;
7529;SDS011;3806;52.270;10.544;2023-05-14T12:40:00;4.50;;;3.20;;
7529;SDS011;3806;52.270;10.544;2023-05-14T12:42:25;5.15;;;3.33;;
7529;SDS011;3806;52.270;10.544;2023-05-14T12:44:51;4.22;;;3.03;;
7529;SDS011;3806;52.270;10.544;2023-05-14T12:47:16;4.85;;;2.85;;
7529;SDS011;3806;52.270;10.544;2023-05-14T12:49:42;4.80;;;3.10;;
7529;SDS011;3806;52.270;10.544;2023-05-14T12:52:08;4.15;;;3.38;;
7529;SDS011;3806;52.270;10.544;2023-05-14T12:54:33;4.38;;;3.17;;
7529;SDS011;3806;52.270;10.544;2023-05-14T12:56:59;3.85;;;2.92;;
7529;SDS011;3806;52.270;10.544;2023-05-14T12:59:24;4.20;;;3.08;;
7529;SDS011;3806;52.270;10.544;2023-05-14T13:01:50;3.58;;;2.60;;
7529;SDS011;3806;52.270;10.544;2023-05-14T13:04:15;5.82;;;2.78;;
7529;SDS011;3806;52.270;10.544;2023-05-14T13:06:41;5.18;;;2.80;;
7529;SDS011;3806;52.270;10.544;2023-05-14T13:09:07;3.65;;;2.63;;
7529;SDS011;3806;52.270;10.544;2023-05-14T13:11:32;5.80;;;2.47;;
7529;SDS011;3806;52.270;10.544;2023-05-14T13:13:58;3.15;;;2.58;;
7529;SDS011;3806;52.270;10.544;2023-05-14T13:16:25;5.50;;;2.72;;
7529;SDS011;3806;52.270;10.544;2023-05-14T13:18:51;3.08;;;2.55;;
7529;SDS011;3806;52.270;10.544;2023-05-14T13:21:17;5.35;;;2.70;;
7529;SDS011;3806;52.270;10.544;2023-05-14T13:23:42;5.13;;;2.70;;
7529;SDS011;3806;52.270;10.544;2023-05-14T13:26:08;3.22;;;2.80;;
7529;SDS011;3806;52.270;10.544;2023-05-14T13:28:33;7.28;;;2.70;;
7529;SDS011;3806;52.270;10.544;2023-05-14T13:31:06;3.97;;;2.78;;
7529;SDS011;3806;52.270;10.544;2023-05-14T13:33:39;4.47;;;2.70;;
7529;SDS011;3806;52.270;10.544;2023-05-14T13:36:06;3.78;;;2.03;;
7529;SDS011;3806;52.270;10.544;2023-05-14T13:38:32;4.18;;;2.35;;
7529;SDS011;3806;52.270;10.544;2023-05-14T13:40:58;3.60;;;2.50;;
7529;SDS011;3806;52.270;10.544;2023-05-14T13:43:26;3.38;;;2.35;;
7529;SDS011;3806;52.270;10.544;2023-05-14T13:45:52;3.60;;;2.30;;
7529;SDS011;3806;52.270;10.544;2023-05-14T13:48:17;3.78;;;2.75;;
7529;SDS011;3806;52.270;10.544;2023-05-14T13:50:43;3.17;;;2.28;;
7529;SDS011;3806;52.270;10.544;2023-05-14T13:53:08;4.90;;;2.70;;
7529;SDS011;3806;52.270;10.544;2023-05-14T13:55:34;5.38;;;2.35;;
7529;SDS011;3806;52.270;10.544;2023-05-14T13:58:00;2.88;;;2.38;;
7529;SDS011;3806;52.270;10.544;2023-05-14T14:00:27;4.55;;;2.58;;
7529;SDS011;3806;52.270;10.544;2023-05-14T14:02:53;4.90;;;2.50;;
7529;SDS011;3806;52.270;10.544;2023-05-14T14:05:18;3.47;;;2.28;;
7529;SDS011;3806;52.270;10.544;2023-05-14T14:07:44;4.00;;;2.08;;
7529;SDS011;3806;52.270;10.544;2023-05-14T14:10:09;4.25;;;2.10;;
7529;SDS011;3806;52.270;10.544;2023-05-14T14:12:35;3.58;;;2.00;;
7529;SDS011;3806;52.270;10.544;2023-05-14T14:15:01;4.57;;;1.98;;
7529;SDS011;3806;52.270;10.544;2023-05-14T14:17:27;3.55;;;2.63;;
7529;SDS011;3806;52.270;10.544;2023-05-14T14:19:53;3.67;;;2.20;;
7529;SDS011;3806;52.270;10.544;2023-05-14T14:22:18;3.03;;;2.30;;
7529;SDS011;3806;52.270;10.544;2023-05-14T14:24:44;2.67;;;2.22;;
7529;SDS011;3806;52.270;10.544;2023-05-14T14:27:10;4.60;;;2.00;;
7529;SDS011;3806;52.270;10.544;2023-05-14T14:29:35;2.85;;;2.03;;
7529;SDS011;3806;52.270;10.544;2023-05-14T14:32:01;2.63;;;2.22;;
7529;SDS011;3806;52.270;10.544;2023-05-14T14:34:27;5.18;;;2.38;;
7529;SDS011;3806;52.270;10.544;2023-05-14T14:36:52;3.90;;;2.40;;
7529;SDS011;3806;52.270;10.544;2023-05-14T14:39:18;4.63;;;2.50;;
7529;SDS011;3806;52.270;10.544;2023-05-14T14:41:43;5.18;;;2.45;;
7529;SDS011;3806;52.270;10.544;2023-05-14T14:44:09;5.00;;;2.25;;
7529;SDS011;3806;52.270;10.544;2023-05-14T14:46:34;5.45;;;2.58;;
7529;SDS011;3806;52.270;10.544;2023-05-14T14:49:00;3.15;;;2.30;;
7529;SDS011;3806;52.270;10.544;2023-05-14T14:51:25;3.10;;;2.40;;
7529;SDS011;3806;52.270;10.544;2023-05-14T14:53:51;5.53;;;2.50;;
7529;SDS011;3806;52.270;10.544;2023-05-14T14:56:17;6.47;;;2.53;;
7529;SDS011;3806;52.270;10.544;2023-05-14T14:58:42;4.35;;;2.92;;